Time;durP1;ratioP1;P1;durP2;ratioP2;P2;SDS_P1;SDS_P2;PMS_P1;PMS_P2;Temp;Humidity;BMP_temperature;BMP_pressure;BME280_temperature;BME280_humidity;BME280_pressure;Samples;Min_cycle;Max_cycle;Signal;HPM_P1;HPM_P2
2021/01/04 00:01:45;;;;;;;65.97;23.83;;;;;;;1.29;94.60;100191.44;3469077;28;20139;-47
2021/01/04 00:04:01;;;;;;;71.28;25.92;;;;;;;1.31;94.36;100194.06;3468270;28;20057;-48
2021/01/04 00:05:51;;;;;;;62.22;22.02;;;;;;;1.31;94.23;100191.53;3467337;28;20111;-49
2021/01/04 00:07:51;;;;;;;61.58;23.65;;;;;;;1.32;94.54;100177.97;3469568;28;20049;-49
2021/01/04 00:09:55;;;;;;;65.10;21.50;;;;;;;1.32;94.56;100189.06;3469433;28;20053;-47
2021/01/04 00:11:46;;;;;;;72.03;24.15;;;;;;;1.33;94.39;100193.34;3467094;28;20049;-48
2021/01/04 00:13:32;;;;;;;69.03;23.10;;;;;;;1.32;94.68;100189.06;3468468;28;20065;-51
2021/01/04 00:15:20;;;;;;;64.75;22.52;;;;;;;1.33;94.58;100197.59;3469770;28;20073;-47
2021/01/04 00:17:11;;;;;;;59.10;22.50;;;;;;;1.34;94.46;100196.81;3467505;28;20058;-47
2021/01/04 00:19:02;;;;;;;57.10;23.00;;;;;;;1.34;94.39;100190.03;3467280;28;20054;-47
2021/01/04 00:20:50;;;;;;;69.55;26.45;;;;;;;1.34;94.73;100184.03;3469796;28;20081;-47
2021/01/04 00:22:38;;;;;;;74.80;24.00;;;;;;;1.34;94.91;100187.47;3467154;28;20053;-47
2021/01/04 00:24:28;;;;;;;59.83;21.50;;;;;;;1.34;94.55;100184.91;3467156;28;20045;-48
2021/01/04 00:26:14;;;;;;;65.45;21.77;;;;;;;1.35;94.49;100186.69;3469766;28;20052;-47
2021/01/04 00:27:59;;;;;;;68.70;24.52;;;;;;;1.36;94.57;100185.88;3467509;28;20056;-49
2021/01/04 00:29:42;;;;;;;64.13;23.38;;;;;;;1.37;94.61;100184.19;3467331;28;20915;-49
2021/01/04 00:31:27;;;;;;;65.43;21.63;;;;;;;1.37;94.84;100189.31;3469269;28;20123;-49
2021/01/04 00:33:17;;;;;;;59.50;23.13;;;;;;;1.38;94.94;100191.09;3467450;28;20041;-48
2021/01/04 00:35:01;;;;;;;66.03;23.20;;;;;;;1.39;94.64;100192.88;3467909;28;20049;-49
2021/01/04 00:37:09;;;;;;;56.55;21.80;;;;;;;1.39;94.54;100185.19;3469570;28;20419;-48
2021/01/04 00:39:23;;;;;;;51.20;19.77;;;;;;;1.40;94.91;100193.75;3466237;28;20054;-49
2021/01/04 00:41:19;;;;;;;53.13;20.55;;;;;;;1.41;94.89;100182.69;3466308;28;20087;-48
2021/01/04 00:43:04;;;;;;;55.58;20.42;;;;;;;1.41;94.51;100182.69;3466045;28;20084;-47
2021/01/04 00:44:58;;;;;;;61.85;21.13;;;;;;;1.40;94.54;100179.28;3469672;28;20054;-47
2021/01/04 00:46:43;;;;;;;58.28;22.52;;;;;;;1.42;94.52;100182.78;3467441;28;20033;-48
2021/01/04 00:48:30;;;;;;;52.28;19.90;;;;;;;1.41;94.48;100178.50;3467268;28;20107;-47
2021/01/04 00:50:22;;;;;;;47.17;19.70;;;;;;;1.41;94.48;100188.72;3455715;28;20058;-48
2021/01/04 00:52:13;;;;;;;52.17;19.70;;;;;;;1.43;94.64;100189.69;3463787;28;20049;-49
2021/01/04 00:53:56;;;;;;;54.92;21.27;;;;;;;1.43;94.78;100188.81;3467306;28;20495;-47
2021/01/04 00:55:57;;;;;;;54.65;20.27;;;;;;;1.43;94.43;100199.91;3456308;28;20049;-47
2021/01/04 00:58:30;;;;;;;52.63;18.95;;;;;;;1.44;94.62;100196.56;3466671;28;20072;-50
2021/01/04 01:00:17;;;;;;;47.97;17.95;;;;;;;1.45;94.58;100200.00;3438256;28;20057;-49
2021/01/04 01:02:08;;;;;;;49.00;20.17;;;;;;;1.45;94.54;100192.34;3438625;28;20058;-47
2021/01/04 01:04:01;;;;;;;52.40;20.83;;;;;;;1.45;94.49;100200.88;3426842;28;20053;-47
2021/01/04 01:05:55;;;;;;;51.78;19.98;;;;;;;1.46;94.41;100202.66;3453627;28;20053;-50
2021/01/04 01:08:01;;;;;;;54.17;19.27;;;;;;;1.46;94.75;100205.22;3466753;28;20076;-49
2021/01/04 01:09:48;;;;;;;55.35;19.80;;;;;;;1.46;94.44;100192.44;3468619;28;20136;-48
2021/01/04 01:12:02;;;;;;;49.95;18.40;;;;;;;1.47;94.89;100188.19;3468222;28;20057;-49
2021/01/04 01:14:01;;;;;;;57.80;20.85;;;;;;;1.47;94.72;100186.50;3449312;28;20136;-49
2021/01/04 01:15:59;;;;;;;46.50;18.30;;;;;;;1.48;94.51;100189.97;3466462;28;20049;-48
2021/01/04 01:18:10;;;;;;;49.83;18.27;;;;;;;1.47;94.65;100189.06;3468658;28;20057;-51
2021/01/04 01:19:55;;;;;;;48.10;18.67;;;;;;;1.49;94.89;100192.59;3465447;28;20045;-47
2021/01/04 01:21:37;;;;;;;46.47;18.95;;;;;;;1.48;94.72;100180.63;3466447;28;20049;-48
2021/01/04 01:23:23;;;;;;;47.22;18.98;;;;;;;1.49;94.76;100173.81;3467490;28;20510;-47
2021/01/04 01:25:07;;;;;;;43.45;17.13;;;;;;;1.50;94.56;100183.25;3467962;28;20061;-47
2021/01/04 01:27:17;;;;;;;43.15;17.85;;;;;;;1.49;94.63;100179.81;3466881;28;20046;-48
2021/01/04 01:29:22;;;;;;;41.33;17.13;;;;;;;1.49;94.32;100177.25;3439565;28;20045;-47
2021/01/04 01:31:22;;;;;;;46.25;17.88;;;;;;;1.51;94.51;100179.91;3455330;28;20056;-48
2021/01/04 01:33:24;;;;;;;38.50;17.08;;;;;;;1.51;94.76;100185.00;3468137;28;20053;-49
2021/01/04 01:35:17;;;;;;;46.83;18.05;;;;;;;1.52;94.76;100186.78;3468012;28;20071;-47
2021/01/04 01:37:41;;;;;;;46.95;17.40;;;;;;;1.52;94.42;100185.09;3466929;28;20144;-47
2021/01/04 01:39:56;;;;;;;44.25;17.83;;;;;;;1.53;94.59;100180.84;3466870;28;20541;-48
2021/01/04 01:42:28;;;;;;;45.05;17.63;;;;;;;1.53;94.52;100178.31;3455524;28;20054;-49
2021/01/04 01:44:20;;;;;;;42.17;16.58;;;;;;;1.53;94.30;100180.84;3400744;29;20052;-48
2021/01/04 01:46:07;;;;;;;46.70;17.70;;;;;;;1.52;94.44;100182.53;3439478;28;20057;-50
2021/01/04 01:48:02;;;;;;;38.10;17.60;;;;;;;1.52;94.55;100187.66;3466567;28;20053;-48
2021/01/04 01:49:58;;;;;;;43.88;17.95;;;;;;;1.52;94.32;100190.22;3468697;28;20054;-49
2021/01/04 01:52:01;;;;;;;41.35;18.05;;;;;;;1.52;94.72;100184.22;3467530;28;20490;-47
2021/01/04 01:53:54;;;;;;;45.92;16.52;;;;;;;1.52;94.63;100194.44;3466261;28;20058;-48
2021/01/04 01:56:03;;;;;;;45.08;18.17;;;;;;;1.51;94.45;100183.34;3466569;28;20510;-47
2021/01/04 01:58:00;;;;;;;44.80;17.42;;;;;;;1.52;94.61;100184.22;3455137;28;20549;-47
2021/01/04 02:00:16;;;;;;;35.55;16.63;;;;;;;1.51;94.52;100180.78;3466718;28;20049;-49
2021/01/04 02:02:04;;;;;;;39.75;16.02;;;;;;;1.52;94.57;100177.44;3455503;28;20057;-48
2021/01/04 02:03:57;;;;;;;47.53;18.55;;;;;;;1.53;94.45;100173.19;3467667;28;20045;-48
2021/01/04 02:06:11;;;;;;;48.90;19.48;;;;;;;1.54;94.51;100180.09;3468478;28;20049;-47
2021/01/04 02:07:57;;;;;;;40.03;17.00;;;;;;;1.53;94.44;100178.31;3467177;28;20056;-47
2021/01/04 02:09:45;;;;;;;44.55;17.63;;;;;;;1.53;94.73;100174.09;3466575;28;20052;-48
2021/01/04 02:11:47;;;;;;;39.33;15.70;;;;;;;1.53;94.76;100180.84;3467989;28;20057;-47
2021/01/04 02:13:34;;;;;;;41.35;17.02;;;;;;;1.53;94.85;100173.19;3468229;28;20054;-48
2021/01/04 02:15:20;;;;;;;42.92;18.17;;;;;;;1.53;94.77;100170.63;3466083;28;20065;-48
2021/01/04 02:17:16;;;;;;;42.22;18.00;;;;;;;1.53;94.59;100168.97;3467178;28;20053;-47
2021/01/04 02:19:10;;;;;;;41.72;17.55;;;;;;;1.54;94.51;100173.28;3468169;28;20055;-47
2021/01/04 02:21:38;;;;;;;44.33;18.20;;;;;;;1.54;94.73;100174.97;3466298;28;20058;-47
2021/01/04 02:23:32;;;;;;;40.65;17.67;;;;;;;1.54;94.44;100168.16;3465830;28;20041;-47
2021/01/04 02:25:14;;;;;;;43.35;17.10;;;;;;;1.55;94.75;100171.63;3467010;28;20061;-48
2021/01/04 02:27:03;;;;;;;41.28;17.67;;;;;;;1.54;94.73;100173.28;3468272;28;20065;-48
2021/01/04 02:28:57;;;;;;;41.92;17.40;;;;;;;1.54;94.64;100173.28;3465960;28;20057;-47
2021/01/04 02:30:39;;;;;;;48.50;17.23;;;;;;;1.53;94.80;100171.53;3466174;28;20045;-46
2021/01/04 02:32:21;;;;;;;44.67;17.80;;;;;;;1.52;94.58;100174.88;3468169;28;20061;-47
2021/01/04 02:34:06;;;;;;;45.22;16.63;;;;;;;1.53;94.87;100175.75;3466157;28;20054;-50
2021/01/04 02:35:48;;;;;;;43.65;16.60;;;;;;;1.53;94.92;100175.75;3467623;28;20041;-48
2021/01/04 02:37:30;;;;;;;41.25;17.33;;;;;;;1.53;95.09;100176.66;3466717;28;20052;-48
2021/01/04 02:39:14;;;;;;;42.78;17.38;;;;;;;1.54;95.04;100182.63;3467166;28;20056;-48
2021/01/04 02:40:56;;;;;;;51.10;19.83;;;;;;;1.53;94.77;100191.09;3468349;28;20111;-50
2021/01/04 02:42:41;;;;;;;43.42;17.35;;;;;;;1.53;95.07;100186.88;3464436;28;20053;-49
2021/01/04 02:44:24;;;;;;;41.75;17.02;;;;;;;1.54;95.15;100183.50;3466105;28;20046;-47
2021/01/04 02:46:10;;;;;;;42.25;16.35;;;;;;;1.54;95.18;100190.31;3468184;28;20053;-46
2021/01/04 02:48:15;;;;;;;42.72;17.45;;;;;;;1.54;95.00;100188.63;3465852;28;20080;-47
2021/01/04 02:50:08;;;;;;;47.47;17.05;;;;;;;1.54;95.02;100187.75;3466123;28;20628;-48
2021/01/04 02:51:55;;;;;;;46.33;17.10;;;;;;;1.55;94.97;100192.09;3468520;28;20054;-48
2021/01/04 02:53:51;;;;;;;41.22;16.48;;;;;;;1.56;95.30;100193.81;3465646;28;20053;-47
2021/01/04 02:55:43;;;;;;;46.05;17.58;;;;;;;1.57;95.20;100187.94;3466156;28;20050;-48
2021/01/04 02:57:35;;;;;;;44.95;17.83;;;;;;;1.58;95.30;100184.56;3468027;28;20073;-48
2021/01/04 02:59:30;;;;;;;48.17;18.38;;;;;;;1.59;95.29;100180.34;3466907;28;20053;-48
2021/01/04 03:01:17;;;;;;;45.00;17.63;;;;;;;1.59;95.26;100180.34;3466209;28;20056;-47
2021/01/04 03:03:04;;;;;;;43.58;17.50;;;;;;;1.59;95.05;100176.13;3466766;28;20049;-48
2021/01/04 03:04:47;;;;;;;41.20;17.42;;;;;;;1.60;95.18;100183.00;3469772;28;20124;-48
2021/01/04 03:06:41;;;;;;;43.85;16.58;;;;;;;1.61;95.29;100186.44;3468335;28;20076;-48
2021/01/04 03:08:23;;;;;;;45.83;17.40;;;;;;;1.61;95.17;100192.41;3469134;28;20053;-47
2021/01/04 03:10:17;;;;;;;44.08;16.50;;;;;;;1.61;95.31;100187.31;3468911;28;20066;-47
2021/01/04 03:12:00;;;;;;;48.65;17.48;;;;;;;1.62;94.94;100193.28;3468034;28;20091;-47
2021/01/04 03:13:52;;;;;;;43.88;16.65;;;;;;;1.63;95.21;100188.28;3468333;28;20049;-47
2021/01/04 03:15:45;;;;;;;45.30;17.67;;;;;;;1.63;94.89;100188.28;3470525;28;20053;-49
2021/01/04 03:17:40;;;;;;;41.22;15.52;;;;;;;1.65;94.92;100183.25;3468397;28;20046;-47
2021/01/04 03:19:27;;;;;;;40.70;17.08;;;;;;;1.65;95.25;100186.69;3467804;28;20422;-47
2021/01/04 03:21:12;;;;;;;48.55;17.73;;;;;;;1.65;95.29;100193.47;3470391;28;20068;-47
2021/01/04 03:22:54;;;;;;;46.08;18.65;;;;;;;1.65;95.28;100188.38;3467944;28;20061;-47
2021/01/04 03:24:35;;;;;;;40.35;16.33;;;;;;;1.65;95.31;100183.25;3468018;28;20085;-47
2021/01/04 03:26:20;;;;;;;48.08;17.42;;;;;;;1.65;95.30;100173.91;3456936;28;20056;-50
2021/01/04 03:28:03;;;;;;;44.22;16.98;;;;;;;1.66;95.43;100177.34;3465111;28;20111;-47
2021/01/04 03:29:46;;;;;;;48.33;18.73;;;;;;;1.67;95.16;100181.66;3468112;28;20140;-49
2021/01/04 03:31:28;;;;;;;41.92;16.13;;;;;;;1.66;95.40;100183.34;3469586;28;20053;-49
2021/01/04 03:33:10;;;;;;;44.90;17.33;;;;;;;1.67;95.46;100184.22;3467868;28;20132;-49
2021/01/04 03:34:52;;;;;;;44.70;17.15;;;;;;;1.68;95.14;100183.44;3469732;28;20052;-49
2021/01/04 03:36:35;;;;;;;;;;;;;;;1.68;95.18;100184.31;3468796;28;20517;-47
2021/01/04 03:38:18;;;;;;;37.50;15.20;;;;;;;1.68;95.24;100184.31;3468190;28;19995;-49
2021/01/04 03:40:00;;;;;;;43.97;16.90;;;;;;;1.67;95.23;100185.13;3470041;28;20476;-48
2021/01/04 03:41:41;;;;;;;42.67;16.75;;;;;;;1.68;95.40;100178.31;3468558;28;20092;-48
2021/01/04 03:43:23;;;;;;;47.65;17.70;;;;;;;1.67;95.00;100167.22;3466117;28;20050;-49
2021/01/04 03:45:07;;;;;;;46.03;19.02;;;;;;;1.68;95.01;100165.53;3469752;28;20054;-48
2021/01/04 03:46:50;;;;;;;;;;;;;;;1.67;95.17;100163.75;3468263;28;20049;-48
2021/01/04 03:48:31;;;;;;;53.67;19.58;;;;;;;1.68;95.26;100157.88;3467736;28;20301;-49
2021/01/04 03:50:14;;;;;;;47.97;18.10;;;;;;;1.67;95.46;100162.09;3469531;28;20080;-48
2021/01/04 03:51:57;;;;;;;49.53;17.45;;;;;;;1.66;95.27;100160.31;3467683;28;20049;-49
2021/01/04 03:53:41;;;;;;;48.60;17.63;;;;;;;1.67;95.14;100162.09;3469354;28;20132;-48
2021/01/04 03:55:22;;;;;;;45.03;18.17;;;;;;;1.66;95.42;100164.56;3468836;28;20060;-47
2021/01/04 03:57:04;;;;;;;45.53;17.13;;;;;;;1.68;95.40;100162.97;3468776;28;20144;-46
2021/01/04 03:58:46;;;;;;;52.92;19.42;;;;;;;1.66;95.26;100173.13;3469719;28;20062;-46
2021/01/04 04:00:28;;;;;;;48.63;19.20;;;;;;;1.66;95.59;100173.13;3468049;28;20050;-47
2021/01/04 04:02:10;;;;;;;43.55;18.20;;;;;;;1.65;95.56;100163.66;3467505;28;20045;-47
2021/01/04 04:03:53;;;;;;;55.40;19.52;;;;;;;1.65;95.48;100168.78;3469877;28;20053;-47
2021/01/04 04:05:34;;;;;;;49.28;18.25;;;;;;;1.65;95.84;100155.13;3467302;28;20510;-47
2021/01/04 04:07:16;;;;;;;44.75;17.23;;;;;;;1.65;95.45;100161.09;3467846;28;20063;-50
2021/01/04 04:08:58;;;;;;;60.30;20.40;;;;;;;1.66;95.83;100160.31;3470013;28;20103;-48
2021/01/04 04:10:40;;;;;;;55.85;19.83;;;;;;;1.66;95.70;100152.66;3467273;28;20207;-49
2021/01/04 04:12:21;;;;;;;48.75;18.40;;;;;;;1.66;95.55;100155.22;3467176;28;20069;-48
2021/01/04 04:14:03;;;;;;;47.63;18.13;;;;;;;1.67;95.72;100151.88;3469649;28;20111;-49
2021/01/04 04:15:46;;;;;;;55.22;18.45;;;;;;;1.67;95.94;100153.53;3466925;28;20100;-46
2021/01/04 04:17:27;;;;;;;58.13;20.17;;;;;;;1.67;95.92;100151.88;3468572;28;20049;-49
2021/01/04 04:19:09;;;;;;;50.05;18.83;;;;;;;1.67;95.85;100148.41;3468484;28;20045;-49
2021/01/04 04:20:50;;;;;;;54.58;20.20;;;;;;;1.68;95.86;100155.31;3468038;28;20056;-47
2021/01/04 04:22:32;;;;;;;45.97;17.55;;;;;;;1.68;96.04;100153.63;3469848;28;20096;-49
2021/01/04 04:24:14;;;;;;;54.85;19.27;;;;;;;1.68;96.07;100158.72;3468073;28;20072;-49
2021/01/04 04:25:55;;;;;;;45.30;17.25;;;;;;;1.69;95.96;100149.38;3467636;28;20050;-48
2021/01/04 04:27:37;;;;;;;48.63;17.90;;;;;;;1.69;95.80;100144.25;3469477;28;20064;-47
2021/01/04 04:29:19;;;;;;;50.42;18.42;;;;;;;1.70;96.13;100151.16;3467026;28;20400;-47
2021/01/04 04:31:01;;;;;;;51.05;19.70;;;;;;;1.71;95.72;100152.94;3467662;28;20495;-48
2021/01/04 04:32:43;;;;;;;50.55;18.85;;;;;;;1.71;96.13;100150.38;3455885;28;20053;-47
2021/01/04 04:34:25;;;;;;;47.55;18.90;;;;;;;1.71;96.02;100160.59;3463919;28;20422;-50
2021/01/04 04:36:07;;;;;;;49.72;18.45;;;;;;;1.70;96.10;100157.13;3468241;28;20076;-47
2021/01/04 04:37:49;;;;;;;52.78;17.20;;;;;;;1.69;95.89;100149.38;3468977;28;20399;-48
2021/01/04 04:39:31;;;;;;;49.95;19.27;;;;;;;1.70;96.00;100158.81;3466964;28;20522;-49
2021/01/04 04:41:23;;;;;;;49.22;18.38;;;;;;;1.71;96.05;100155.50;3469095;28;20502;-48
2021/01/04 04:43:11;;;;;;;45.17;16.88;;;;;;;1.73;95.97;100161.56;3466089;28;20097;-48
2021/01/04 04:44:58;;;;;;;44.55;18.77;;;;;;;1.72;95.90;100153.03;3467373;28;20066;-47
2021/01/04 04:47:02;;;;;;;49.75;17.38;;;;;;;1.74;95.92;100151.44;3469404;28;20053;-49
2021/01/04 04:48:53;;;;;;;52.80;17.83;;;;;;;1.76;96.07;100151.50;3468840;28;20150;-47
2021/01/04 04:50:54;;;;;;;40.75;16.92;;;;;;;1.76;96.14;100146.41;3467886;28;20426;-48
2021/01/04 04:52:58;;;;;;;45.97;16.40;;;;;;;1.76;95.99;100138.72;3467083;28;20430;-47
2021/01/04 04:54:56;;;;;;;39.60;16.10;;;;;;;1.78;96.14;100142.25;3455914;28;20054;-47
2021/01/04 04:56:56;;;;;;;49.95;16.42;;;;;;;1.77;95.95;100137.03;3467839;28;20059;-47
2021/01/04 04:58:48;;;;;;;43.42;16.08;;;;;;;1.79;96.01;100143.13;3467268;28;20056;-48
2021/01/04 05:00:46;;;;;;;42.47;16.45;;;;;;;1.79;95.86;100154.22;3467304;28;20057;-49
2021/01/04 05:02:42;;;;;;;39.15;16.15;;;;;;;1.79;95.66;100148.22;3469006;28;20053;-48
2021/01/04 05:04:54;;;;;;;43.03;15.52;;;;;;;1.79;95.69;100146.56;3466974;28;20418;-48
2021/01/04 05:06:43;;;;;;;48.63;16.35;;;;;;;1.79;95.83;100138.00;3467169;28;20056;-49
2021/01/04 05:08:43;;;;;;;44.38;15.82;;;;;;;1.80;95.73;100129.56;3468596;28;20088;-50
2021/01/04 05:10:28;;;;;;;36.03;14.07;;;;;;;1.79;95.78;100132.88;3468257;28;20054;-48
2021/01/04 05:12:21;;;;;;;35.60;14.77;;;;;;;1.81;95.88;100138.97;3467075;28;20530;-49
2021/01/04 05:14:10;;;;;;;39.45;15.07;;;;;;;1.81;95.99;100139.84;3467141;28;20077;-48
2021/01/04 05:15:59;;;;;;;34.88;14.20;;;;;;;1.82;95.81;100146.72;3468380;28;20057;-50
2021/01/04 05:18:15;;;;;;;40.10;15.68;;;;;;;1.82;95.69;100136.50;3466794;28;20061;-48
2021/01/04 05:20:12;;;;;;;37.08;14.80;;;;;;;1.84;95.81;100136.59;3466969;28;20046;-48
2021/01/04 05:22:43;;;;;;;36.20;13.82;;;;;;;1.84;95.74;100139.16;3468751;28;20081;-47
2021/01/04 05:24:56;;;;;;;34.90;14.32;;;;;;;1.85;95.90;100146.03;3455206;28;20127;-48
2021/01/04 05:27:08;;;;;;;36.92;14.68;;;;;;;1.84;95.84;100134.91;3468054;28;20460;-47
2021/01/04 05:29:28;;;;;;;35.10;15.57;;;;;;;1.84;95.91;100134.03;3466566;28;20409;-49
2021/01/04 05:31:27;;;;;;;32.75;13.75;;;;;;;1.85;95.72;100141.78;3466411;28;20099;-49
2021/01/04 05:33:44;;;;;;;38.55;15.40;;;;;;;1.84;95.93;100154.50;3466443;28;20045;-49
2021/01/04 05:35:28;;;;;;;37.20;16.38;;;;;;;1.84;96.01;100152.81;3468489;28;20057;-48
2021/01/04 05:37:22;;;;;;;35.95;14.23;;;;;;;1.86;95.80;100150.34;3467868;28;20049;-49
2021/01/04 05:39:11;;;;;;;39.33;15.18;;;;;;;1.84;95.73;100147.69;3466726;28;20056;-48
2021/01/04 05:41:14;;;;;;;39.67;14.20;;;;;;;1.86;96.02;100155.47;3467638;28;20053;-48
2021/01/04 05:43:10;;;;;;;36.95;15.10;;;;;;;1.87;95.96;100159.78;3463421;28;20095;-48
2021/01/04 05:45:00;;;;;;;39.00;14.48;;;;;;;1.86;95.92;100158.00;3466593;28;20061;-47
2021/01/04 05:46:47;;;;;;;38.63;13.77;;;;;;;1.87;95.87;100163.22;3466335;28;23916;-46
2021/01/04 05:48:49;;;;;;;42.13;15.32;;;;;;;1.88;95.74;100151.31;3468680;28;20049;-47
2021/01/04 05:50:39;;;;;;;38.83;14.75;;;;;;;1.88;95.88;100156.41;3466458;28;20046;-47
2021/01/04 05:52:21;;;;;;;34.60;14.43;;;;;;;1.87;95.64;100155.53;3466410;28;20494;-47
2021/01/04 05:54:03;;;;;;;34.17;13.88;;;;;;;1.88;95.93;100164.09;3468651;28;20482;-47
2021/01/04 05:55:44;;;;;;;36.53;13.73;;;;;;;1.88;96.00;100159.88;3466441;28;20489;-48
2021/01/04 05:57:26;;;;;;;33.72;14.20;;;;;;;1.89;95.70;100168.44;3466572;28;20053;-48
2021/01/04 05:59:11;;;;;;;32.40;13.93;;;;;;;1.90;95.97;100171.06;3468631;28;20057;-48
2021/01/04 06:00:52;;;;;;;36.60;14.18;;;;;;;1.91;95.77;100164.28;3466000;28;20115;-47
2021/01/04 06:02:34;;;;;;;34.83;14.18;;;;;;;1.91;96.05;100167.69;3466818;28;20061;-47
2021/01/04 06:04:25;;;;;;;34.08;13.77;;;;;;;1.92;96.03;100169.47;3467787;28;20111;-49
2021/01/04 06:06:25;;;;;;;31.38;12.73;;;;;;;1.93;95.69;100168.66;3466285;28;20157;-48
2021/01/04 06:08:20;;;;;;;28.95;13.18;;;;;;;1.92;95.65;100159.25;3466549;28;20050;-49
2021/01/04 06:10:03;;;;;;;32.40;13.23;;;;;;;1.93;95.63;100157.56;3454665;28;20092;-49
2021/01/04 06:11:50;;;;;;;33.88;14.30;;;;;;;1.94;95.62;100156.78;3464201;28;20057;-49
2021/01/04 06:13:36;;;;;;;31.20;13.55;;;;;;;1.93;95.79;100153.31;3466081;28;20045;-48
2021/01/04 06:15:27;;;;;;;35.60;14.02;;;;;;;1.94;95.66;100160.22;3468566;28;20056;-47
2021/01/04 06:17:27;;;;;;;31.85;14.10;;;;;;;1.96;95.68;100156.88;3466362;28;20671;-48
2021/01/04 06:19:12;;;;;;;35.50;13.93;;;;;;;1.96;96.05;100162.84;3466137;28;20051;-49
2021/01/04 06:21:16;;;;;;;42.25;15.40;;;;;;;1.96;95.92;100174.78;3468665;28;20045;-48
2021/01/04 06:22:57;;;;;;;34.95;14.32;;;;;;;1.95;95.69;100173.88;3466193;28;20469;-48
2021/01/04 06:24:41;;;;;;;36.88;14.27;;;;;;;1.97;95.96;100166.28;3466121;28;20114;-49
2021/01/04 06:26:23;;;;;;;33.97;13.05;;;;;;;1.98;95.78;100179.16;3467974;28;20045;-48
2021/01/04 06:28:06;;;;;;;29.73;13.05;;;;;;;1.98;95.63;100168.94;3467016;28;20060;-50
2021/01/04 06:29:49;;;;;;;36.13;14.45;;;;;;;1.98;95.98;100165.50;3466173;28;20049;-49
2021/01/04 06:31:36;;;;;;;35.33;14.13;;;;;;;1.97;95.88;100174.88;3454426;28;20085;-50
2021/01/04 06:33:21;;;;;;;32.72;14.10;;;;;;;1.98;95.74;100171.50;3463289;28;20050;-48
2021/01/04 06:35:10;;;;;;;34.05;13.90;;;;;;;1.99;95.99;100173.28;3466264;28;20064;-48
2021/01/04 06:36:55;;;;;;;35.00;13.18;;;;;;;2.00;95.55;100169.03;3468033;28;20083;-51
2021/01/04 06:38:40;;;;;;;27.25;13.00;;;;;;;2.00;95.74;100177.56;3466464;28;20053;-50
2021/01/04 06:40:32;;;;;;;26.48;12.82;;;;;;;2.02;95.62;100177.66;3469517;28;20050;-47
2021/01/04 06:42:17;;;;;;;29.33;13.30;;;;;;;2.02;95.68;100178.53;3468605;28;20049;-48
2021/01/04 06:44:09;;;;;;;30.30;13.18;;;;;;;2.02;95.81;100181.09;3468249;28;20107;-48
2021/01/04 06:46:05;;;;;;;32.42;13.00;;;;;;;2.03;95.49;100177.75;3468398;28;20053;-47
2021/01/04 06:48:00;;;;;;;33.55;12.55;;;;;;;2.04;95.58;100181.19;3470497;28;20083;-47
2021/01/04 06:49:52;;;;;;;29.50;13.25;;;;;;;2.05;95.83;100188.06;3468425;28;20054;-48
2021/01/04 06:52:03;;;;;;;34.28;13.80;;;;;;;2.07;95.91;100183.91;3468365;28;20045;-47
2021/01/04 06:54:07;;;;;;;28.52;12.50;;;;;;;2.07;95.51;100191.59;3444639;28;20057;-50
2021/01/04 06:56:24;;;;;;;28.75;13.57;;;;;;;2.07;95.62;100191.59;3470354;28;20502;-50
2021/01/04 06:58:40;;;;;;;26.58;13.50;;;;;;;2.09;95.63;100192.56;3458324;28;20154;-52
2021/01/04 07:00:27;;;;;;;31.65;13.60;;;;;;;2.08;95.42;100188.25;3465838;28;20056;-47
2021/01/04 07:02:49;;;;;;;33.75;14.48;;;;;;;2.09;95.61;100190.88;3468392;28;20042;-48
2021/01/04 07:05:11;;;;;;;34.92;14.43;;;;;;;2.10;95.82;100187.53;3440671;28;20062;-49
2021/01/04 07:07:46;;;;;;;36.22;15.25;;;;;;;2.11;95.72;100173.94;3456592;28;20060;-49
2021/01/04 07:09:58;;;;;;;40.47;16.67;;;;;;;2.13;95.55;100172.34;3401753;29;20103;-49
2021/01/04 07:11:45;;;;;;;34.22;14.73;;;;;;;2.14;95.50;100170.66;3413852;28;20059;-49
2021/01/04 07:13:53;;;;;;;34.30;15.90;;;;;;;2.14;95.68;100168.97;3412485;28;20539;-47
2021/01/04 07:15:43;;;;;;;34.70;15.55;;;;;;;2.16;95.67;100171.63;3468310;28;20049;-48
2021/01/04 07:17:46;;;;;;;38.85;15.93;;;;;;;2.18;95.77;100169.16;3456504;28;20470;-47
2021/01/04 07:19:51;;;;;;;38.08;15.98;;;;;;;2.20;95.71;100159.88;3467571;28;20132;-49
2021/01/04 07:21:47;;;;;;;45.72;18.38;;;;;;;2.21;95.77;100161.66;3467939;28;20107;-52
2021/01/04 07:23:42;;;;;;;47.78;17.95;;;;;;;2.21;95.81;100165.09;3469040;28;20096;-51
2021/01/04 07:25:37;;;;;;;40.47;17.08;;;;;;;2.22;95.71;100166.88;3468810;28;20053;-47
2021/01/04 07:27:39;;;;;;;37.80;16.88;;;;;;;2.22;95.59;100166.88;3468407;28;20071;-50
2021/01/04 07:29:44;;;;;;;35.75;16.52;;;;;;;2.22;95.68;100166.88;3466157;28;20085;-51
2021/01/04 07:31:33;;;;;;;36.63;15.93;;;;;;;2.23;95.54;100185.66;3469408;28;20061;-50
2021/01/04 07:33:23;;;;;;;36.92;16.15;;;;;;;2.23;95.38;100183.97;3468588;28;20057;-50
2021/01/04 07:35:09;;;;;;;33.10;14.80;;;;;;;2.23;95.59;100181.41;3467855;28;20056;-50
2021/01/04 07:36:53;;;;;;;34.35;15.13;;;;;;;2.23;95.62;100172.84;3469309;28;20479;-50
2021/01/04 07:38:55;;;;;;;34.63;15.75;;;;;;;2.24;95.62;100172.94;3468737;28;20056;-47
2021/01/04 07:40:48;;;;;;;35.88;14.75;;;;;;;2.24;95.27;100175.50;3467835;28;20053;-47
2021/01/04 07:43:05;;;;;;;34.78;15.13;;;;;;;2.25;95.54;100167.03;3466469;28;20060;-46
2021/01/04 07:45:15;;;;;;;32.55;14.63;;;;;;;2.27;95.70;100162.88;3456805;28;20065;-49
2021/01/04 07:47:35;;;;;;;41.55;17.27;;;;;;;2.27;95.43;100168.00;3469525;28;20076;-49
2021/01/04 07:49:38;;;;;;;39.78;16.90;;;;;;;2.30;95.59;100163.03;3466888;28;20050;-50
2021/01/04 07:51:44;;;;;;;37.13;16.45;;;;;;;2.31;95.34;100164.81;3467115;28;20049;-47
2021/01/04 07:53:58;;;;;;;40.80;16.63;;;;;;;2.33;95.47;100165.75;3468127;28;20402;-48
2021/01/04 07:56:17;;;;;;;42.40;18.70;;;;;;;2.36;95.70;100171.84;3456227;28;20054;-47
2021/01/04 07:58:41;;;;;;;39.63;16.92;;;;;;;2.37;95.40;100166.81;3436357;28;20058;-50
2021/01/04 08:00:50;;;;;;;37.95;16.70;;;;;;;2.40;95.66;100158.44;3468899;28;20434;-47
2021/01/04 08:03:00;;;;;;;41.33;18.02;;;;;;;2.45;95.62;100167.25;3468467;28;20057;-47
2021/01/04 08:05:04;;;;;;;48.20;18.33;;;;;;;2.47;95.63;100171.63;3467536;28;20419;-48
2021/01/04 08:07:25;;;;;;;41.72;17.02;;;;;;;2.49;95.79;100175.16;3467663;28;20045;-47
2021/01/04 08:09:15;;;;;;;42.15;17.17;;;;;;;2.48;95.23;100178.53;3441702;28;20054;-48
2021/01/04 08:11:47;;;;;;;36.08;16.17;;;;;;;2.49;95.60;100190.50;3468906;28;20053;-47
2021/01/04 08:14:02;;;;;;;43.28;18.13;;;;;;;2.49;95.30;100185.41;3468173;28;20057;-48
2021/01/04 08:15:47;;;;;;;41.63;17.42;;;;;;;2.50;95.44;100187.16;3467778;28;20049;-47
2021/01/04 08:17:50;;;;;;;45.78;17.58;;;;;;;2.53;95.50;100188.13;3467543;28;20110;-47
2021/01/04 08:19:37;;;;;;;41.13;16.20;;;;;;;2.55;95.58;100196.78;3469325;28;20057;-48
2021/01/04 08:21:31;;;;;;;39.10;15.95;;;;;;;2.56;95.39;100193.44;3468645;28;20055;-47
2021/01/04 08:23:25;;;;;;;;;;;;;;;2.58;95.44;100200.38;3468350;28;20084;-47
2021/01/04 08:25:11;;;;;;;43.75;16.92;;;;;;;2.59;95.54;100198.69;3468081;28;20398;-48
2021/01/04 08:27:08;;;;;;;44.95;17.92;;;;;;;2.60;95.60;100197.91;3468847;28;20554;-48
2021/01/04 08:29:01;;;;;;;38.70;17.98;;;;;;;2.60;95.27;100205.59;3467263;28;20514;-49
2021/01/04 08:30:55;;;;;;;40.20;17.85;;;;;;;2.58;95.42;100202.94;3467354;28;20049;-49
2021/01/04 08:32:46;;;;;;;37.67;16.40;;;;;;;2.60;95.31;100195.34;3469651;28;20073;-48
2021/01/04 08:34:38;;;;;;;47.95;18.58;;;;;;;2.60;95.50;100205.59;3467503;28;20233;-48
2021/01/04 08:36:28;;;;;;;39.83;17.65;;;;;;;2.62;95.39;100196.31;3467139;28;20061;-49
2021/01/04 08:38:21;;;;;;;48.50;18.40;;;;;;;2.63;95.39;100198.06;3470232;28;20140;-50
2021/01/04 08:40:18;;;;;;;42.10;17.92;;;;;;;2.65;95.20;100194.78;3466646;28;20053;-50
2021/01/04 08:42:13;;;;;;;49.22;18.08;;;;;;;2.68;95.61;100196.66;3466293;28;20068;-47